Time;durP1;ratioP1;P1;durP2;ratioP2;P2;SDS_P1;SDS_P2;PMS_P1;PMS_P2;Temp;Humidity;BMP_temperature;BMP_pressure;BME280_temperature;BME280_humidity;BME280_pressure;Samples;Min_cycle;Max_cycle;Signal;HPM_P1;HPM_P2
2021/04/16 00:00:19;;;;;;;5.87;1.40;;;6.20;55.00;;;;;;5034173;28;20057;-64
2021/04/16 00:02:44;;;;;;;5.57;1.43;;;6.20;55.10;;;;;;5033547;28;20494;-64
2021/04/16 00:05:11;;;;;;;4.10;1.30;;;6.20;55.30;;;;;;5034007;28;20042;-64
2021/04/16 00:07:36;;;;;;;2.47;1.03;;;6.20;55.40;;;;;;5016008;28;20041;-64
2021/04/16 00:10:07;;;;;;;5.80;1.30;;;6.20;55.50;;;;;;5033346;28;20037;-64
2021/04/16 00:12:33;;;;;;;4.00;1.40;;;6.20;55.70;;;;;;5034042;28;20037;-64
2021/04/16 00:14:58;;;;;;;5.23;1.83;;;6.20;55.70;;;;;;5015653;28;20032;-64
2021/04/16 00:17:24;;;;;;;4.60;1.33;;;6.20;55.80;;;;;;5033500;28;20501;-64
2021/04/16 00:19:49;;;;;;;4.03;1.50;;;6.20;55.80;;;;;;4999518;28;20052;-64
2021/04/16 00:22:15;;;;;;;4.83;1.50;;;6.20;55.90;;;;;;4999274;28;20086;-64
2021/04/16 00:24:41;;;;;;;4.07;1.43;;;6.20;56.00;;;;;;5033554;28;20037;-64
2021/04/16 00:27:07;;;;;;;3.60;1.50;;;6.20;56.00;;;;;;5015798;28;20038;-64
2021/04/16 00:29:33;;;;;;;3.10;1.30;;;6.20;56.00;;;;;;5033350;28;20037;-64
2021/04/16 00:31:58;;;;;;;4.10;1.33;;;6.20;56.20;;;;;;5033489;28;20496;-64
2021/04/16 00:34:26;;;;;;;3.17;1.10;;;6.20;56.30;;;;;;5032999;28;20413;-64
2021/04/16 00:36:53;;;;;;;4.17;1.40;;;6.20;56.50;;;;;;5033057;28;20091;-64
2021/04/16 00:39:22;;;;;;;4.70;1.63;;;6.20;56.70;;;;;;5033301;28;20132;-64
2021/04/16 00:41:48;;;;;;;3.87;1.63;;;6.10;56.80;;;;;;5032898;28;20084;-64
2021/04/16 00:44:15;;;;;;;4.63;1.50;;;6.20;56.90;;;;;;5033541;28;20048;-64
2021/04/16 00:47:12;;;;;;;4.00;1.43;;;6.20;57.10;;;;;;5015048;28;20476;-64
2021/04/16 00:49:47;;;;;;;5.83;1.70;;;6.20;57.20;;;;;;5033267;28;20493;-64
2021/04/16 00:52:20;;;;;;;4.53;1.20;;;6.20;57.30;;;;;;5033000;28;20074;-64
2021/04/16 00:54:46;;;;;;;5.13;1.90;;;6.20;57.40;;;;;;5015283;28;20049;-64
2021/04/16 00:57:14;;;;;;;3.70;1.50;;;6.20;57.40;;;;;;5032270;28;20033;-64
2021/04/16 00:59:52;;;;;;;4.47;1.57;;;6.20;57.50;;;;;;5015437;28;20383;-64
2021/04/16 01:02:19;;;;;;;5.37;1.77;;;6.20;57.60;;;;;;5032678;28;20041;-64
2021/04/16 01:04:44;;;;;;;6.10;1.70;;;6.20;57.70;;;;;;5032642;28;20037;-64
2021/04/16 01:07:11;;;;;;;4.47;1.57;;;6.20;57.80;;;;;;5032173;28;20048;-64
2021/04/16 01:09:37;;;;;;;4.03;1.40;;;6.10;57.80;;;;;;5032806;28;20048;-64
2021/04/16 01:12:06;;;;;;;6.23;1.70;;;6.10;57.90;;;;;;5032826;28;20038;-64
2021/04/16 01:14:33;;;;;;;4.37;1.50;;;6.10;58.10;;;;;;5032040;28;20037;-64
2021/04/16 01:17:00;;;;;;;5.80;1.80;;;6.10;58.10;;;;;;5032375;28;20078;-64
2021/04/16 01:19:42;;;;;;;4.73;1.50;;;6.00;58.20;;;;;;5032064;28;20049;-64
2021/04/16 01:22:27;;;;;;;6.53;1.77;;;6.00;58.50;;;;;;5032751;28;20025;-64
2021/04/16 01:24:57;;;;;;;5.27;1.60;;;5.90;58.60;;;;;;5032178;28;20044;-64
2021/04/16 01:27:24;;;;;;;5.20;1.50;;;5.90;58.80;;;;;;5032419;28;20050;-63
2021/04/16 01:29:50;;;;;;;5.53;1.93;;;5.90;59.00;;;;;;5032079;28;20091;-64
2021/04/16 01:32:26;;;;;;;4.97;1.97;;;5.90;59.20;;;;;;5014925;28;20494;-64
2021/04/16 01:34:52;;;;;;;6.97;2.17;;;5.80;59.60;;;;;;5031792;28;20048;-64
2021/04/16 01:37:18;;;;;;;4.53;1.80;;;5.80;59.80;;;;;;5031985;28;20117;-64
2021/04/16 01:39:44;;;;;;;4.73;1.70;;;5.90;60.10;;;;;;5032239;28;20103;-64
2021/04/16 01:42:10;;;;;;;6.47;1.70;;;5.90;60.20;;;;;;5031786;28;20037;-64
2021/04/16 01:44:36;;;;;;;7.33;1.77;;;5.90;60.20;;;;;;5032027;28;20042;-64
2021/04/16 01:47:07;;;;;;;5.40;1.80;;;5.90;60.40;;;;;;5031404;28;20060;-64
2021/04/16 01:49:48;;;;;;;4.70;1.50;;;5.90;60.70;;;;;;5031290;28;20473;-64
2021/04/16 01:52:21;;;;;;;4.95;1.95;;;5.90;60.80;;;;;;5031545;28;20038;-64
2021/04/16 01:54:51;;;;;;;5.87;1.77;;;5.90;60.90;;;;;;5031969;28;20057;-64
2021/04/16 01:57:26;;;;;;;4.25;1.38;;;5.80;61.10;;;;;;5031347;28;20120;-64
2021/04/16 01:59:52;;;;;;;4.70;1.77;;;5.80;61.30;;;;;;5017547;28;20490;-64
2021/04/16 02:02:25;;;;;;;6.40;2.20;;;5.90;61.40;;;;;;5011764;28;20045;-64
2021/04/16 02:04:51;;;;;;;6.27;1.73;;;5.90;61.50;;;;;;5012080;28;20471;-64
2021/04/16 02:07:22;;;;;;;6.28;2.17;;;5.90;61.70;;;;;;5011516;28;20421;-64
2021/04/16 02:09:47;;;;;;;5.43;2.10;;;5.90;61.60;;;;;;5012277;28;20084;-64
2021/04/16 02:12:15;;;;;;;6.60;2.03;;;5.90;61.60;;;;;;5012214;28;20306;-64
2021/04/16 02:14:41;;;;;;;5.17;1.80;;;5.80;61.50;;;;;;5011435;28;20042;-64
2021/04/16 02:17:14;;;;;;;6.37;2.00;;;5.80;61.70;;;;;;5011889;28;20463;-64
2021/04/16 02:19:40;;;;;;;5.60;2.10;;;5.80;61.80;;;;;;5011473;28;20453;-64
2021/04/16 02:22:08;;;;;;;5.13;2.00;;;5.70;61.80;;;;;;4994360;28;20513;-64
2021/04/16 02:24:33;;;;;;;5.77;1.87;;;5.70;61.90;;;;;;5010441;28;20544;-64
2021/04/16 02:26:59;;;;;;;5.43;2.20;;;5.70;62.10;;;;;;5011141;28;20038;-64
2021/04/16 02:29:25;;;;;;;5.53;1.80;;;5.60;62.20;;;;;;5011634;28;20046;-64
2021/04/16 02:31:51;;;;;;;4.07;1.90;;;5.60;62.30;;;;;;5011428;28;20041;-64
2021/04/16 02:34:23;;;;;;;7.87;2.10;;;5.60;62.40;;;;;;5011785;28;20038;-64
2021/04/16 02:36:52;;;;;;;4.73;1.90;;;5.60;62.90;;;;;;5011782;28;20513;-64
2021/04/16 02:39:18;;;;;;;8.80;2.30;;;5.60;62.50;;;;;;5009802;28;20383;-64
2021/04/16 02:41:44;;;;;;;5.80;2.00;;;5.60;62.50;;;;;;5009966;28;20057;-64
2021/04/16 02:44:09;;;;;;;6.07;1.90;;;5.60;62.50;;;;;;5009520;28;20061;-66
2021/04/16 02:46:35;;;;;;;5.47;2.00;;;5.50;62.50;;;;;;4996089;28;20033;-64
2021/04/16 02:49:01;;;;;;;7.20;2.30;;;5.50;63.10;;;;;;5014616;28;20072;-64
2021/04/16 02:51:27;;;;;;;6.60;2.30;;;5.50;62.70;;;;;;5014374;28;20038;-64
2021/04/16 02:53:53;;;;;;;7.17;2.30;;;5.50;62.80;;;;;;5015227;28;20045;-64
2021/04/16 02:56:19;;;;;;;4.57;1.90;;;5.60;62.90;;;;;;5012275;28;20041;-64
2021/04/16 02:58:45;;;;;;;6.20;2.23;;;5.60;62.80;;;;;;5010817;28;20119;-64
2021/04/16 03:01:10;;;;;;;6.37;1.90;;;5.60;62.80;;;;;;4997599;28;20205;-64
2021/04/16 03:03:36;;;;;;;6.73;2.20;;;5.60;62.90;;;;;;5017401;28;20064;-64
2021/04/16 03:06:03;;;;;;;4.33;1.90;;;5.60;63.50;;;;;;5017484;28;20044;-64
2021/04/16 03:08:29;;;;;;;5.40;2.10;;;5.60;63.00;;;;;;5017002;28;20053;-65
2021/04/16 03:10:55;;;;;;;6.03;2.10;;;5.60;63.00;;;;;;5017709;28;20042;-64
2021/04/16 03:13:21;;;;;;;5.60;2.00;;;5.60;63.10;;;;;;5017732;28;20045;-64
2021/04/16 03:15:47;;;;;;;7.53;2.27;;;5.60;63.20;;;;;;5017104;28;20038;-64
2021/04/16 03:18:13;;;;;;;7.70;2.37;;;5.60;63.30;;;;;;5017315;28;20045;-64
2021/04/16 03:20:40;;;;;;;6.10;1.90;;;5.50;63.30;;;;;;5000179;28;20042;-64
2021/04/16 03:23:05;;;;;;;6.57;2.27;;;5.50;63.40;;;;;;5017095;28;20060;-64
2021/04/16 03:25:32;;;;;;;5.47;2.37;;;5.50;63.40;;;;;;5017530;28;20113;-65
2021/04/16 03:27:57;;;;;;;6.37;2.30;;;5.50;63.40;;;;;;5016762;28;20495;-64
2021/04/16 03:30:31;;;;;;;5.40;2.10;;;5.50;63.60;;;;;;5017597;28;20120;-64
2021/04/16 03:32:56;;;;;;;7.17;2.00;;;5.40;63.50;;;;;;5017693;28;20033;-64
2021/04/16 03:35:23;;;;;;;4.87;2.00;;;5.40;63.50;;;;;;5016982;28;20044;-64
2021/04/16 03:37:49;;;;;;;5.23;2.20;;;5.50;63.60;;;;;;5017113;28;20033;-64
2021/04/16 03:40:18;;;;;;;8.57;2.37;;;5.40;64.00;;;;;;5016813;28;20042;-64
2021/04/16 03:42:43;;;;;;;5.03;2.10;;;5.40;63.60;;;;;;5019130;28;20042;-64
2021/04/16 03:45:10;;;;;;;5.57;2.20;;;5.40;63.50;;;;;;5022610;28;20072;-65
2021/04/16 03:47:36;;;;;;;6.63;2.00;;;5.30;63.30;;;;;;5021743;28;20038;-68
2021/04/16 03:50:03;;;;;;;7.80;2.30;;;5.20;63.40;;;;;;5022713;28;20030;-64
2021/04/16 03:52:29;;;;;;;6.27;2.10;;;5.20;63.40;;;;;;5003944;28;20582;-64
2021/04/16 03:54:55;;;;;;;6.40;2.33;;;5.10;63.40;;;;;;5020379;28;20054;-64
2021/04/16 03:57:21;;;;;;;4.83;1.90;;;5.00;63.30;;;;;;5020754;28;20097;-64
2021/04/16 03:59:47;;;;;;;5.37;2.00;;;4.90;63.30;;;;;;5002633;28;20091;-64
2021/04/16 04:02:13;;;;;;;5.73;2.00;;;4.80;63.30;;;;;;5019838;28;20037;-64
2021/04/16 04:04:39;;;;;;;4.93;2.10;;;4.70;63.30;;;;;;5018892;28;20069;-64
2021/04/16 04:07:05;;;;;;;5.60;2.30;;;4.60;63.30;;;;;;4984822;28;20034;-64
2021/04/16 04:09:31;;;;;;;7.70;2.30;;;4.50;63.40;;;;;;5017335;28;20379;-64
2021/04/16 04:11:56;;;;;;;7.33;2.37;;;4.40;63.60;;;;;;5015113;28;20045;-64
2021/04/16 04:14:22;;;;;;;6.43;2.33;;;4.30;63.90;;;;;;5014042;28;20041;-64
2021/04/16 04:16:59;;;;;;;5.97;2.47;;;4.20;64.10;;;;;;5014122;28;20394;-64
2021/04/16 04:19:27;;;;;;;6.07;2.23;;;4.20;64.20;;;;;;5013697;28;20650;-64
2021/04/16 04:21:55;;;;;;;5.00;2.13;;;4.10;64.30;;;;;;4996478;28;20092;-66
2021/04/16 04:24:21;;;;;;;6.53;2.40;;;4.00;64.50;;;;;;4995872;28;20048;-64
2021/04/16 04:26:47;;;;;;;5.97;2.37;;;3.90;64.70;;;;;;4996279;28;20037;-64
2021/04/16 04:29:15;;;;;;;7.13;2.50;;;3.90;65.20;;;;;;5013313;28;20034;-64
2021/04/16 04:31:47;;;;;;;6.60;2.30;;;3.80;65.40;;;;;;5013862;28;20042;-63
2021/04/16 04:34:22;;;;;;;6.33;2.53;;;3.80;65.50;;;;;;4996331;28;20073;-63
2021/04/16 04:36:50;;;;;;;10.30;2.73;;;3.80;65.80;;;;;;5013301;28;20065;-64
2021/04/16 04:39:16;;;;;;;7.50;2.50;;;3.80;66.20;;;;;;5013436;28;20128;-64
2021/04/16 04:41:42;;;;;;;8.40;2.77;;;3.80;66.40;;;;;;5013162;28;20543;-63
2021/04/16 04:44:09;;;;;;;5.70;2.43;;;3.90;66.60;;;;;;5013543;28;20045;-63
2021/04/16 04:46:36;;;;;;;6.10;2.30;;;3.90;66.70;;;;;;5013031;28;20052;-65
2021/04/16 04:49:02;;;;;;;6.67;2.67;;;4.00;66.90;;;;;;5012919;28;20545;-64
2021/04/16 04:51:28;;;;;;;7.47;2.50;;;4.00;66.80;;;;;;4995926;28;20072;-63
2021/04/16 04:53:54;;;;;;;6.30;2.50;;;4.00;67.00;;;;;;5015425;28;20432;-64
2021/04/16 04:56:19;;;;;;;8.43;3.90;;;4.00;67.20;;;;;;5019037;28;20463;-63
2021/04/16 04:58:45;;;;;;;10.60;4.20;;;4.00;67.30;;;;;;5022114;28;20049;-63
2021/04/16 05:01:11;;;;;;;9.23;4.27;;;4.10;67.60;;;;;;5021311;28;20033;-63
2021/04/16 05:03:37;;;;;;;7.60;3.27;;;4.20;67.80;;;;;;5005328;28;20500;-63
2021/04/16 05:06:03;;;;;;;7.70;3.00;;;4.30;68.10;;;;;;5052115;22;20049;-69
2021/04/16 05:08:28;;;;;;;8.33;2.57;;;4.40;68.30;;;;;;5032544;28;20041;-69
2021/04/16 05:10:54;;;;;;;7.47;2.63;;;4.50;68.30;;;;;;5033107;28;20047;-69
2021/04/16 05:13:20;;;;;;;8.37;2.73;;;4.60;68.40;;;;;;5015219;28;20413;-68
2021/04/16 05:15:45;;;;;;;8.00;2.80;;;4.70;68.40;;;;;;5045379;28;20581;-71
2021/04/16 05:18:11;;;;;;;8.13;3.23;;;4.80;68.30;;;;;;5034312;28;20135;-68
2021/04/16 05:20:37;;;;;;;6.97;3.07;;;4.90;68.30;;;;;;5053114;28;20033;-69
2021/04/16 05:23:03;;;;;;;7.33;3.60;;;5.00;68.40;;;;;;5052477;28;20374;-69
2021/04/16 05:25:28;;;;;;;8.63;3.23;;;5.10;68.50;;;;;;5051257;28;20041;-70
2021/04/16 05:27:54;;;;;;;7.30;3.00;;;5.10;68.50;;;;;;5052922;28;20040;-69
2021/04/16 05:30:20;;;;;;;6.87;2.80;;;5.30;68.60;;;;;;5035166;28;20041;-69
2021/04/16 05:32:47;;;;;;;8.50;3.00;;;5.40;68.40;;;;;;5033311;28;20029;-68
2021/04/16 05:35:13;;;;;;;8.97;3.70;;;5.50;68.40;;;;;;5034621;28;20067;-69
2021/04/16 05:37:39;;;;;;;6.83;2.87;;;5.60;68.30;;;;;;5000532;28;20134;-69
2021/04/16 05:40:07;;;;;;;7.67;2.70;;;5.70;68.10;;;;;;5051908;28;20548;-69
2021/04/16 05:42:32;;;;;;;8.93;2.97;;;5.80;68.00;;;;;;5052191;28;20401;-69
2021/04/16 05:45:00;;;;;;;6.90;2.97;;;6.00;67.90;;;;;;5050704;28;20039;-69
2021/04/16 05:47:27;;;;;;;7.50;2.90;;;6.10;68.10;;;;;;5050426;28;20045;-70
2021/04/16 05:49:53;;;;;;;6.37;2.83;;;6.20;68.10;;;;;;5032896;28;20463;-68
2021/04/16 05:52:19;;;;;;;8.30;3.20;;;6.40;68.00;;;;;;5034391;28;20077;-69
2021/04/16 05:54:44;;;;;;;6.63;2.83;;;6.50;67.80;;;;;;5051285;28;20059;-70
2021/04/16 05:57:10;;;;;;;8.77;3.10;;;6.70;67.90;;;;;;5048941;28;20025;-69
2021/04/16 05:59:36;;;;;;;9.03;3.20;;;6.80;68.30;;;;;;5031515;28;20045;-70
2021/04/16 06:02:02;;;;;;;7.70;3.00;;;7.00;67.50;;;;;;5030337;28;20054;-69
2021/04/16 06:04:28;;;;;;;8.90;2.93;;;7.20;67.20;;;;;;5030518;28;20077;-69
2021/04/16 06:06:55;;;;;;;8.00;2.93;;;7.30;67.00;;;;;;5030201;28;20041;-70
2021/04/16 06:09:20;;;;;;;7.73;2.97;;;7.40;67.10;;;;;;5030059;28;20064;-69
2021/04/16 06:11:46;;;;;;;8.27;3.03;;;7.70;67.80;;;;;;5012915;28;20477;-70
2021/04/16 06:14:13;;;;;;;6.67;2.80;;;8.20;69.00;;;;;;5030345;28;20048;-70
2021/04/16 06:16:39;;;;;;;8.13;3.10;;;8.60;67.50;;;;;;4995941;28;20588;-72
2021/04/16 06:19:05;;;;;;;6.80;3.00;;;9.00;67.20;;;;;;5011326;28;20040;-71
2021/04/16 06:21:31;;;;;;;9.37;3.03;;;9.40;66.80;;;;;;4996516;28;20041;-70
2021/04/16 06:23:57;;;;;;;7.47;3.10;;;9.70;66.70;;;;;;5031695;28;20040;-69
2021/04/16 06:26:24;;;;;;;7.07;3.10;;;10.20;65.30;;;;;;5031400;28;20429;-70
2021/04/16 06:28:50;;;;;;;6.80;3.03;;;10.50;65.10;;;;;;5030329;28;20037;-70
2021/04/16 06:31:17;;;;;;;6.85;3.10;;;10.90;64.70;;;;;;5031227;28;20037;-70
2021/04/16 06:33:43;;;;;;;6.70;2.95;;;11.30;63.70;;;;;;5030836;28;20095;-70
2021/04/16 06:36:12;;;;;;;8.57;3.72;;;11.40;62.10;;;;;;5030717;28;20078;-70
2021/04/16 06:38:40;;;;;;;8.13;3.65;;;11.40;61.40;;;;;;5030555;28;20093;-70
2021/04/16 06:41:17;;;;;;;7.93;3.40;;;11.90;63.10;;;;;;5029376;28;20034;-69
2021/04/16 06:43:49;;;;;;;7.45;3.35;;;13.10;65.50;;;;;;5031165;28;20048;-70
2021/04/16 06:46:23;;;;;;;8.10;3.50;;;14.90;65.60;;;;;;5030593;28;20034;-71
2021/04/16 06:48:49;;;;;;;9.25;3.13;;;16.50;61.40;;;;;;5030273;28;20126;-71
2021/04/16 06:51:20;;;;;;;7.97;3.30;;;17.20;57.50;;;;;;5030374;28;20061;-71
2021/04/16 06:53:58;;;;;;;7.40;3.03;;;17.10;54.20;;;;;;5013485;28;20033;-70
2021/04/16 06:56:38;;;;;;;7.30;3.10;;;17.30;53.40;;;;;;5029862;28;20490;-69
2021/04/16 06:59:18;;;;;;;8.45;3.60;;;18.00;52.80;;;;;;5012720;28;20037;-70
2021/04/16 07:02:01;;;;;;;7.78;3.28;;;18.70;51.50;;;;;;5012877;28;20057;-71
2021/04/16 07:04:30;;;;;;;7.82;3.50;;;19.50;49.30;;;;;;5012559;28;20497;-71
2021/04/16 07:06:59;;;;;;;7.20;3.40;;;20.20;48.60;;;;;;5030145;28;20086;-71
2021/04/16 07:09:31;;;;;;;5.55;2.70;;;21.00;47.20;;;;;;5012905;28;20036;-71
2021/04/16 07:12:19;;;;;;;7.30;2.92;;;21.80;45.20;;;;;;5030116;28;20178;-70
2021/04/16 07:15:08;;;;;;;7.03;2.80;;;22.60;43.20;;;;;;5030096;28;20038;-70
2021/04/16 07:17:42;;;;;;;6.43;2.60;;;23.10;41.20;;;;;;5029902;28;20060;-71
2021/04/16 07:20:10;;;;;;;6.40;2.78;;;23.50;38.70;;;;;;5029932;28;20549;-71
2021/04/16 07:22:42;;;;;;;6.93;2.50;;;23.40;37.80;;;;;;5028701;28;20109;-66
2021/04/16 07:25:15;;;;;;;6.25;2.80;;;23.80;37.20;;;;;;5030060;28;20494;-67
2021/04/16 07:27:51;;;;;;;5.97;2.10;;;24.40;36.20;;;;;;5029594;28;20063;-68
2021/04/16 07:30:43;;;;;;;5.97;2.25;;;25.00;35.00;;;;;;5029859;28;20496;-67
2021/04/16 07:33:42;;;;;;;6.25;2.40;;;25.40;34.10;;;;;;5009986;28;20469;-66
2021/04/16 07:36:40;;;;;;;4.75;2.30;;;26.00;33.40;;;;;;4997228;28;20030;-68
2021/04/16 07:39:06;;;;;;;5.05;1.88;;;26.40;32.00;;;;;;5029591;28;20045;-67
2021/04/16 07:42:12;;;;;;;4.28;1.80;;;26.80;30.70;;;;;;5029707;28;20116;-68
2021/04/16 07:45:01;;;;;;;5.80;2.03;;;27.00;29.50;;;;;;4996567;28;20547;-66
2021/04/16 07:47:30;;;;;;;6.15;2.10;;;26.70;28.20;;;;;;4999651;28;20041;-66
2021/04/16 07:50:04;;;;;;;4.55;1.65;;;26.40;28.00;;;;;;5015976;28;20041;-67
2021/04/16 07:52:37;;;;;;;4.38;1.80;;;26.70;28.20;;;;;;5032205;28;20048;-66
2021/04/16 07:55:31;;;;;;;3.95;1.80;;;27.20;27.70;;;;;;5010300;28;20037;-66
2021/04/16 07:58:06;;;;;;;5.15;1.98;;;27.60;27.30;;;;;;5027859;28;20476;-68
2021/04/16 08:00:38;;;;;;;3.97;1.65;;;28.00;26.70;;;;;;5038557;28;20037;-67
2021/04/16 08:03:13;;;;;;;4.45;1.67;;;28.30;26.60;;;;;;5033035;28;20404;-67
2021/04/16 08:05:45;;;;;;;4.50;1.73;;;28.80;26.00;;;;;;5031320;28;20639;-66
2021/04/16 08:08:24;;;;;;;3.00;1.33;;;29.20;25.50;;;;;;5025560;28;20034;-68
2021/04/16 08:11:15;;;;;;;7.50;1.77;;;29.40;25.00;;;;;;5018194;28;20037;-67
2021/04/16 08:13:47;;;;;;;4.43;1.45;;;29.90;24.40;;;;;;5021719;28;20390;-66
2021/04/16 08:16:26;;;;;;;4.97;2.22;;;30.00;24.00;;;;;;5015910;28;20136;-67
2021/04/16 08:19:16;;;;;;;4.38;1.38;;;30.10;23.70;;;;;;5017560;28;20056;-67
2021/04/16 08:21:50;;;;;;;3.40;1.30;;;30.60;23.50;;;;;;5031444;28;20056;-69
2021/04/16 08:24:24;;;;;;;2.55;1.20;;;31.20;23.30;;;;;;5039078;28;20033;-67
2021/04/16 08:27:08;;;;;;;3.03;1.40;;;31.60;22.70;;;;;;5030773;28;20045;-67
2021/04/16 08:30:03;;;;;;;3.47;1.20;;;31.60;22.20;;;;;;5033452;28;20551;-66
2021/04/16 08:32:44;;;;;;;2.63;1.20;;;31.40;21.70;;;;;;5034474;28;20034;-65
2021/04/16 08:35:21;;;;;;;3.42;1.30;;;30.80;21.50;;;;;;5013190;28;20117;-68
2021/04/16 08:37:54;;;;;;;2.92;1.30;;;30.20;21.10;;;;;;5032099;28;20025;-66
2021/04/16 08:40:29;;;;;;;4.57;1.30;;;29.80;21.10;;;;;;5016570;28;20656;-65
2021/04/16 08:42:58;;;;;;;3.47;1.35;;;29.90;21.40;;;;;;5031738;28;20041;-67
2021/04/16 08:45:26;;;;;;;3.13;1.30;;;30.40;21.00;;;;;;5032586;28;20124;-66
2021/04/16 08:47:56;;;;;;;2.92;1.30;;;31.00;21.20;;;;;;5032093;28;20136;-67
2021/04/16 08:50:30;;;;;;;4.10;1.63;;;31.40;21.00;;;;;;5032910;28;20500;-67
2021/04/16 08:52:59;;;;;;;4.07;1.30;;;31.60;20.90;;;;;;5014176;28;20064;-66
2021/04/16 08:55:33;;;;;;;3.00;1.10;;;32.00;20.80;;;;;;5031178;28;20091;-66
2021/04/16 08:58:25;;;;;;;3.33;1.30;;;32.30;20.60;;;;;;5031146;28;20041;-66
2021/04/16 09:01:12;;;;;;;3.42;1.40;;;33.20;20.80;;;;;;5032291;28;20074;-66
2021/04/16 09:03:54;;;;;;;3.13;1.20;;;33.30;20.10;;;;;;5032206;28;20038;-67
2021/04/16 09:06:32;;;;;;;3.20;1.20;;;33.30;19.50;;;;;;5040300;28;20037;-66
2021/04/16 09:08:59;;;;;;;3.35;1.33;;;33.50;19.80;;;;;;5038956;28;20116;-66
2021/04/16 09:11:51;;;;;;;4.28;1.30;;;33.90;19.90;;;;;;5012802;28;20047;-66
2021/04/16 09:14:46;;;;;;;3.15;1.60;;;34.70;20.10;;;;;;5014322;28;20048;-66
2021/04/16 09:17:12;;;;;;;3.20;1.25;;;35.50;19.60;;;;;;4998386;28;20033;-67
2021/04/16 09:19:43;;;;;;;2.97;1.40;;;35.60;19.50;;;;;;5033711;28;20129;-66
2021/04/16 09:22:11;;;;;;;2.67;1.15;;;35.70;19.10;;;;;;5028711;28;20156;-66
2021/04/16 09:25:01;;;;;;;2.47;0.90;;;35.90;19.00;;;;;;5017875;28;20047;-66
2021/04/16 09:27:33;;;;;;;3.30;1.10;;;35.80;18.70;;;;;;5025657;28;20532;-66
2021/04/16 09:29:59;;;;;;;2.58;1.00;;;35.70;18.40;;;;;;5031437;28;20481;-67
2021/04/16 09:32:34;;;;;;;1.92;1.00;;;35.70;18.50;;;;;;5031745;28;20489;-68
2021/04/16 09:35:05;;;;;;;1.90;0.98;;;36.40;18.50;;;;;;5031454;28;20057;-66
2021/04/16 09:37:52;;;;;;;2.75;1.00;;;36.50;17.80;;;;;;5028345;28;20437;-67
2021/04/16 09:40:18;;;;;;;2.20;0.93;;;36.10;18.10;;;;;;5030102;28;20052;-67
2021/04/16 09:43:07;;;;;;;1.90;0.75;;;36.30;17.80;;;;;;5030800;28;20034;-66
2021/04/16 09:45:34;;;;;;;2.67;0.85;;;35.90;17.20;;;;;;5018050;28;20053;-66
2021/04/16 09:48:04;;;;;;;1.95;0.90;;;35.20;17.00;;;;;;5030558;28;20409;-67
2021/04/16 09:50:43;;;;;;;3.63;0.80;;;35.20;17.50;;;;;;5030955;28;20128;-68
2021/04/16 09:53:19;;;;;;;2.13;0.80;;;35.80;17.70;;;;;;5007628;28;20057;-66
2021/04/16 09:55:59;;;;;;;2.42;0.90;;;36.20;16.90;;;;;;5036820;28;20041;-67
2021/04/16 10:01:01;;;;;;;4.65;1.00;;;35.70;16.90;;;;;;5031197;28;20035;-66
2021/04/16 10:03:44;;;;;;;4.05;0.90;;;35.30;16.90;;;;;;5031155;28;20034;-65
2021/04/16 10:06:27;;;;;;;2.22;0.80;;;35.20;17.30;;;;;;5031108;28;20040;-66
2021/04/16 10:09:17;;;;;;;2.45;0.90;;;35.80;17.50;;;;;;5030507;28;20045;-66
2021/04/16 10:11:55;;;;;;;3.53;1.00;;;36.50;17.20;;;;;;5026837;28;20448;-66
2021/04/16 10:14:26;;;;;;;2.28;0.90;;;36.20;17.20;;;;;;5030908;28;20033;-67
2021/04/16 10:17:06;;;;;;;1.92;0.90;;;36.50;17.00;;;;;;5044847;28;20512;-65
2021/04/16 10:19:39;;;;;;;2.30;1.00;;;36.80;16.80;;;;;;4999545;28;20087;-66
2021/04/16 10:22:21;;;;;;;2.67;0.98;;;36.90;16.80;;;;;;5031344;28;20511;-66
2021/04/16 10:25:53;;;;;;;1.33;0.80;;;37.00;16.90;;;;;;5030508;28;20485;-66
2021/04/16 10:31:07;;;;;;;2.47;1.10;;;36.90;17.00;;;;;;5038702;28;20120;-67
2021/04/16 10:38:05;;;;;;;1.30;0.73;;;37.10;16.80;;;;;;5011004;28;20038;-67
2021/04/16 10:49:00;;;;;;;2.33;1.02;;;36.60;16.70;;;;;;5032694;28;20112;-66
2021/04/16 12:41:21;;;;;;;2.75;1.00;;;25.10;20.90;;;;;;5053010;28;20033;-71
2021/04/16 12:43:49;;;;;;;4.38;1.23;;;26.10;20.40;;;;;;5052935;28;20033;-71
2021/04/16 12:46:21;;;;;;;3.90;1.23;;;26.40;20.10;;;;;;5052587;28;20044;-70
2021/04/16 12:48:47;;;;;;;3.83;1.30;;;26.70;20.50;;;;;;5051910;28;20120;-70
2021/04/16 12:51:13;;;;;;;3.80;1.10;;;27.00;20.40;;;;;;5052931;28;20120;-70
2021/04/16 12:53:39;;;;;;;3.75;1.30;;;27.30;20.60;;;;;;5052456;28;20067;-71
2021/04/16 12:56:08;;;;;;;5.00;1.40;;;27.50;20.30;;;;;;5052627;28;20104;-69
2021/04/16 12:58:38;;;;;;;3.90;1.20;;;27.10;19.80;;;;;;5052350;28;20044;-70
2021/04/16 13:01:08;;;;;;;4.70;1.52;;;26.10;19.80;;;;;;5052300;28;20455;-69
2021/04/16 13:03:41;;;;;;;;;;;25.40;19.90;;;;;;5053251;28;20043;-71
2021/04/16 13:06:43;;;;;;;5.05;1.50;;;24.70;20.30;;;;;;5052021;28;19936;-70
2021/04/16 13:09:12;;;;;;;6.03;1.50;;;24.30;20.80;;;;;;4951503;28;20040;-69
2021/04/16 13:11:38;;;;;;;2.80;1.20;;;23.90;21.10;;;;;;5034579;28;20104;-69
2021/04/16 13:14:05;;;;;;;3.55;1.30;;;23.50;21.20;;;;;;5051933;28;20112;-71
2021/04/16 13:16:31;;;;;;;3.65;1.40;;;23.40;21.70;;;;;;5052498;28;20068;-71
2021/04/16 13:19:05;;;;;;;3.30;1.20;;;23.60;22.00;;;;;;5052120;28;20033;-70
2021/04/16 13:21:36;;;;;;;3.85;1.20;;;23.90;22.10;;;;;;5034096;28;20392;-70
2021/04/16 13:24:03;;;;;;;3.63;1.30;;;24.00;21.90;;;;;;5052368;28;20056;-71
2021/04/16 13:26:29;;;;;;;2.53;1.30;;;23.80;21.70;;;;;;5033890;28;20619;-71
2021/04/16 13:28:55;;;;;;;3.05;1.27;;;23.20;21.60;;;;;;5050989;28;20124;-70
2021/04/16 13:31:23;;;;;;;6.93;1.60;;;22.60;21.70;;;;;;5051315;28;20067;-70
2021/04/16 13:33:49;;;;;;;5.30;1.30;;;22.00;21.90;;;;;;5017747;28;20037;-71
2021/04/16 13:36:20;;;;;;;4.55;1.20;;;21.50;22.30;;;;;;5051636;28;20485;-71
2021/04/16 13:38:47;;;;;;;7.47;1.38;;;21.00;22.60;;;;;;5032705;28;20051;-70
2021/04/16 13:41:13;;;;;;;2.53;0.95;;;20.50;22.90;;;;;;5051868;28;20037;-71
2021/04/16 13:43:39;;;;;;;3.30;1.17;;;20.10;23.30;;;;;;5036574;28;20479;-70
2021/04/16 13:46:07;;;;;;;2.88;1.20;;;19.90;23.60;;;;;;5030752;28;20038;-69
2021/04/16 13:48:34;;;;;;;3.70;1.30;;;19.70;23.80;;;;;;5030283;28;20034;-70
2021/04/16 13:51:00;;;;;;;5.70;1.58;;;19.60;23.90;;;;;;5031194;28;20164;-70
2021/04/16 13:53:25;;;;;;;4.13;1.10;;;19.30;23.80;;;;;;5031595;28;20129;-71
2021/04/16 13:55:53;;;;;;;2.92;0.98;;;18.90;24.30;;;;;;5013058;28;20123;-69
2021/04/16 13:58:19;;;;;;;4.32;1.23;;;18.60;24.50;;;;;;5030786;28;20056;-70
2021/04/16 14:00:46;;;;;;;3.45;1.10;;;18.10;24.50;;;;;;5013429;28;20037;-70
2021/04/16 14:03:32;;;;;;;2.53;1.05;;;17.70;24.90;;;;;;5028644;28;20029;-71
2021/04/16 14:06:03;;;;;;;4.03;1.10;;;17.30;25.40;;;;;;5012690;28;20120;-70
2021/04/16 14:08:34;;;;;;;4.65;0.98;;;17.10;26.00;;;;;;5030501;28;20154;-71
2021/04/16 14:11:01;;;;;;;4.15;1.40;;;16.80;25.70;;;;;;5013955;28;20094;-70
2021/04/16 14:13:28;;;;;;;3.88;1.10;;;16.60;25.70;;;;;;5030988;28;20041;-69
2021/04/16 14:16:08;;;;;;;4.13;1.30;;;16.40;25.90;;;;;;5031097;28;20402;-70
2021/04/16 14:18:39;;;;;;;3.77;1.30;;;16.20;26.10;;;;;;5030154;28;20041;-71
2021/04/16 14:21:06;;;;;;;3.22;1.10;;;16.00;26.40;;;;;;5031108;28;20306;-71
2021/04/16 14:23:33;;;;;;;2.25;1.15;;;16.00;26.60;;;;;;5030783;28;20102;-70
2021/04/16 14:25:59;;;;;;;4.43;1.13;;;15.90;26.70;;;;;;5013309;28;20080;-69
2021/04/16 14:28:25;;;;;;;3.50;1.15;;;15.90;26.90;;;;;;5027483;28;20030;-71
2021/04/16 14:30:55;;;;;;;3.15;0.95;;;16.00;27.00;;;;;;5030083;28;20033;-64
2021/04/16 14:33:27;;;;;;;4.47;1.10;;;16.20;27.10;;;;;;5029804;28;20049;-67
2021/04/16 14:35:54;;;;;;;2.85;0.95;;;16.20;27.00;;;;;;5021403;28;20037;-65
2021/04/16 14:38:20;;;;;;;3.25;1.08;;;16.10;26.90;;;;;;5013011;28;20041;-65
2021/04/16 14:40:46;;;;;;;4.35;1.10;;;16.10;27.20;;;;;;5012674;28;20156;-65
2021/04/16 14:43:13;;;;;;;4.28;1.20;;;16.20;27.50;;;;;;5012954;28;20517;-67
2021/04/16 14:45:45;;;;;;;2.95;1.10;;;16.30;27.50;;;;;;5030571;28;20474;-65
2021/04/16 14:48:12;;;;;;;5.05;1.02;;;16.20;27.20;;;;;;5029812;28;20033;-66
2021/04/16 14:50:38;;;;;;;4.38;1.20;;;16.10;27.10;;;;;;5030940;28;20041;-67
2021/04/16 14:53:12;;;;;;;4.13;0.90;;;16.10;27.30;;;;;;5012684;28;20509;-64
2021/04/16 14:55:38;;;;;;;4.55;0.90;;;16.10;27.30;;;;;;5030945;28;20079;-65
2021/04/16 14:58:07;;;;;;;5.70;1.02;;;15.90;27.40;;;;;;5011287;28;20037;-66
2021/04/16 15:00:36;;;;;;;3.90;1.15;;;15.90;27.60;;;;;;5030055;28;20033;-66
2021/04/16 15:03:04;;;;;;;2.85;0.90;;;15.80;27.70;;;;;;5030913;28;20038;-66
2021/04/16 15:05:30;;;;;;;4.22;1.00;;;15.80;28.10;;;;;;5025279;28;20045;-66
2021/04/16 15:08:05;;;;;;;5.20;1.58;;;15.80;27.70;;;;;;5029895;28;20042;-66
2021/04/16 15:10:36;;;;;;;3.95;0.90;;;15.70;27.80;;;;;;5012441;28;20033;-66
2021/04/16 15:13:02;;;;;;;4.38;1.60;;;15.70;27.90;;;;;;5013048;28;20095;-66
2021/04/16 15:15:35;;;;;;;3.40;1.23;;;15.60;27.90;;;;;;5030007;28;20047;-67
2021/04/16 15:18:01;;;;;;;5.05;1.17;;;15.50;27.90;;;;;;5030189;28;20100;-67